KCTZ

Clinton-Sampson County Airport

Clinton, North Carolina, USA
METAR KCTZ 171500Z AUTO 31005KT 10SM CLR 12/07 A3006 RMK AO2 T01210066
Observed Flight Rules
Dec-17 @ 15:00 UTC (16 minutes ago) Visual Flight Rules
Wind Visibility Clouds
310° at 5 knots 10 miles
  • Clear skies
Temperatures Readings
Current 12°C / 54°F
Dewpoint 7°C / 45°F
Humidity 72%
Altimeter 30.06" Hg
Pressure 1018 hPa
Elevation 45
METAR KCTZ 171500Z AUTO 31005KT 10SM CLR 12/07 A3006 RMK AO2 T01210066
Observed Flight Rules
Dec-17 @ 15:00 UTC
(16 minutes ago)
VFR
Wind Visibility
310° at 5 knots 10 miles
Clouds
  • Clear skies
Temperature Dewpoint
12°C / 54°F 7°C / 45°F
Humidity Altimeter Pressure
72% 30.06" Hg 1018 hPa